createdAt,value
2024-03-09T00:04:58.707Z,23.67
2024-03-09T00:10:00.579Z,19.67
2024-03-09T00:15:03.041Z,20.20
2024-03-09T00:20:05.583Z,18.15
2024-03-09T00:25:08.649Z,22.35
2024-03-09T00:30:12.144Z,20.92
2024-03-09T00:35:14.540Z,18.00
2024-03-09T00:40:16.936Z,20.63
2024-03-09T00:45:19.076Z,19.13
2024-03-09T00:50:21.094Z,13.77
2024-03-09T00:55:23.352Z,10.20
2024-03-09T01:00:26.237Z,18.63
2024-03-09T01:05:28.877Z,11.18
2024-03-09T01:10:31.186Z,13.32
2024-03-09T01:15:33.924Z,14.15
2024-03-09T01:20:36.814Z,7.97
2024-03-09T01:25:40.353Z,17.60
2024-03-09T01:30:45.597Z,18.88
2024-03-09T01:35:48.328Z,11.68
2024-03-09T01:40:50.957Z,11.40
2024-03-09T01:45:53.782Z,13.77
2024-03-09T01:50:56.172Z,15.00
2024-03-09T01:55:58.760Z,12.75
2024-03-09T02:01:01.589Z,17.20
2024-03-09T02:06:04.033Z,11.13
2024-03-09T02:11:06.446Z,10.57
2024-03-09T02:16:08.528Z,12.18
2024-03-09T02:21:10.902Z,15.95
2024-03-09T02:26:13.856Z,11.48
2024-03-09T02:31:17.441Z,10.60
2024-03-09T02:36:32.695Z,11.35
2024-03-09T02:41:35.203Z,12.73
2024-03-09T02:46:38.950Z,9.30
2024-03-09T02:51:41.881Z,8.85
2024-03-09T02:56:44.460Z,9.10
2024-03-09T03:01:47.096Z,9.05
2024-03-09T03:06:49.437Z,11.02
2024-03-09T03:11:51.748Z,9.27
2024-03-09T03:16:53.794Z,12.77
2024-03-09T03:21:55.755Z,6.47
2024-03-09T03:26:59.073Z,7.10
2024-03-09T03:32:04.157Z,11.65
2024-03-09T03:37:06.533Z,8.10
2024-03-09T03:42:08.590Z,15.48
2024-03-09T03:47:11.073Z,14.25
2024-03-09T03:52:15.162Z,16.92
2024-03-09T03:57:17.488Z,17.60
2024-03-09T04:02:20.385Z,17.35
2024-03-09T04:07:22.808Z,15.30
2024-03-09T04:12:26.335Z,18.60
2024-03-09T04:17:29.551Z,13.95
2024-03-09T04:22:31.925Z,13.55
2024-03-09T04:27:34.313Z,15.43
2024-03-09T04:32:36.390Z,18.17
2024-03-09T04:37:38.750Z,14.45
2024-03-09T04:42:41.378Z,15.80
2024-03-09T04:47:43.340Z,17.08
2024-03-09T04:52:46.459Z,14.93
2024-03-09T04:57:48.529Z,16.02
2024-03-09T05:02:50.895Z,19.80
2024-03-09T05:07:53.494Z,14.68
2024-03-09T05:12:56.296Z,19.35
2024-03-09T05:17:59.996Z,16.20
2024-03-09T05:23:03.092Z,14.48
2024-03-09T05:28:05.650Z,15.30
2024-03-09T05:33:08.472Z,18.83
2024-03-09T05:38:11.486Z,16.77
2024-03-09T05:43:14.142Z,16.70
2024-03-09T05:48:16.832Z,18.15
2024-03-09T05:53:19.370Z,15.55
2024-03-09T05:58:21.770Z,13.98
2024-03-09T06:03:24.902Z,6.10
2024-03-09T06:08:26.959Z,11.15
2024-03-09T06:13:29.655Z,10.77
2024-03-09T06:18:31.807Z,11.95
2024-03-09T06:23:34.217Z,5.80
2024-03-09T06:28:36.296Z,10.10
2024-03-09T06:33:40.953Z,16.75
2024-03-09T06:38:43.069Z,14.50
2024-03-09T06:43:45.420Z,15.48
2024-03-09T06:48:47.895Z,11.27
2024-03-09T06:53:49.853Z,9.95
2024-03-09T06:58:52.389Z,11.00
2024-03-09T07:03:54.381Z,10.57
2024-03-09T07:08:57.264Z,13.60
2024-03-09T07:13:59.968Z,10.23
2024-03-09T07:19:02.092Z,15.40
2024-03-09T07:24:04.503Z,17.90
2024-03-09T07:29:06.836Z,10.30
2024-03-09T07:34:08.846Z,11.25
2024-03-09T07:39:12.178Z,11.32
2024-03-09T07:44:14.757Z,9.35
2024-03-09T07:49:16.998Z,14.68
2024-03-09T07:54:19.026Z,18.08
2024-03-09T07:59:21.679Z,10.77
2024-03-09T08:04:24.554Z,14.88
2024-03-09T08:09:30.636Z,19.33
2024-03-09T08:14:33.267Z,17.45
2024-03-09T08:19:35.924Z,11.30
2024-03-09T08:24:38.986Z,16.08
2024-03-09T08:29:40.849Z,17.10
2024-03-09T08:34:43.502Z,18.10
2024-03-09T08:39:45.912Z,20.40
2024-03-09T08:44:48.502Z,18.52
2024-03-09T08:49:50.957Z,15.70
2024-03-09T08:54:53.223Z,18.40
2024-03-09T08:59:55.575Z,15.85
2024-03-09T09:04:58.023Z,17.83
2024-03-09T09:10:00.056Z,13.48
2024-03-09T09:15:02.475Z,16.65
2024-03-09T09:20:05.981Z,19.20
2024-03-09T09:25:09.792Z,16.63
2024-03-09T09:30:12.327Z,17.17
2024-03-09T09:35:14.840Z,17.40
2024-03-09T09:40:17.982Z,15.00
2024-03-09T09:45:24.236Z,14.52
2024-03-09T09:50:26.409Z,18.05
2024-03-09T09:55:55.557Z,18.77
2024-03-09T10:00:59.232Z,16.13
2024-03-09T10:06:31.670Z,15.82
2024-03-09T10:17:26.183Z,16.77
2024-03-09T10:22:35.298Z,14.00
2024-03-09T10:27:39.145Z,18.75
2024-03-09T10:32:41.923Z,17.73
2024-03-09T10:37:44.089Z,17.35
2024-03-09T10:42:48.632Z,17.08
2024-03-09T10:47:54.992Z,17.67
2024-03-09T10:53:07.581Z,16.23
2024-03-09T10:58:09.770Z,16.60
2024-03-09T11:03:11.838Z,17.08
2024-03-09T11:08:13.939Z,16.02
2024-03-09T11:13:17.010Z,16.40
2024-03-09T11:18:19.900Z,15.68
2024-03-09T11:23:25.021Z,14.27
2024-03-09T11:28:49.498Z,13.93
2024-03-09T11:33:53.826Z,13.68
2024-03-09T11:38:57.955Z,14.35
2024-03-09T11:44:00.760Z,14.00
2024-03-09T11:49:05.703Z,8.15
2024-03-09T11:54:12.747Z,13.25
2024-03-09T11:59:15.966Z,8.77
2024-03-09T12:04:18.874Z,5.13
2024-03-09T12:09:21.858Z,5.53
2024-03-09T12:14:24.876Z,4.72
2024-03-09T12:19:27.494Z,7.40
2024-03-09T12:24:29.916Z,5.55
2024-03-09T12:29:32.596Z,5.38
2024-03-09T12:34:35.130Z,4.43
2024-03-09T12:39:37.618Z,3.40
2024-03-09T12:44:40.052Z,2.90
2024-03-09T12:49:43.361Z,2.80
2024-03-09T12:54:45.862Z,3.33
2024-03-09T12:59:48.530Z,4.85
2024-03-09T13:04:51.794Z,3.55
2024-03-09T13:09:54.927Z,4.25
2024-03-09T13:14:57.528Z,4.72
2024-03-09T13:19:59.797Z,6.50
2024-03-09T13:25:02.831Z,4.93
2024-03-09T13:30:09.786Z,4.97
2024-03-09T13:35:16.578Z,6.85
2024-03-09T13:40:24.650Z,5.63
2024-03-09T13:45:28.652Z,6.57
2024-03-09T13:50:31.104Z,5.38
2024-03-09T13:55:35.152Z,5.78
2024-03-09T14:00:40.486Z,5.88
2024-03-09T14:05:45.289Z,9.50
2024-03-09T14:10:48.140Z,6.82
2024-03-09T14:15:52.161Z,7.97
2024-03-09T14:20:55.444Z,7.93
2024-03-09T14:26:09.662Z,8.27
2024-03-09T14:31:13.361Z,9.25
2024-03-09T14:36:16.433Z,6.65
2024-03-09T14:41:22.742Z,8.05
2024-03-09T14:46:27.554Z,7.63
2024-03-09T14:51:29.904Z,6.65
2024-03-09T14:56:33.963Z,7.82
2024-03-09T15:01:36.962Z,7.82
2024-03-09T15:07:07.565Z,9.40
2024-03-09T15:12:16.587Z,7.28
2024-03-09T15:17:19.573Z,6.60
2024-03-09T15:22:25.849Z,7.43
2024-03-09T15:27:33.331Z,8.52
2024-03-09T15:32:54.701Z,8.52
2024-03-09T15:38:12.099Z,7.28
2024-03-09T15:43:28.261Z,9.60
2024-03-09T15:48:41.340Z,11.25
2024-03-09T15:53:48.473Z,9.43
2024-03-09T15:58:53.497Z,13.05
2024-03-09T16:04:18.877Z,10.98
2024-03-09T16:09:42.541Z,8.55
2024-03-09T16:19:48.636Z,6.90
2024-03-09T16:24:51.044Z,12.30
2024-03-09T16:29:55.980Z,13.70
2024-03-09T16:34:59.441Z,9.55
2024-03-09T16:40:01.957Z,14.98
2024-03-09T16:45:05.223Z,10.15
2024-03-09T16:50:10.042Z,11.70
2024-03-09T16:55:14.382Z,13.38
2024-03-09T17:00:18.211Z,11.77
2024-03-09T17:05:21.460Z,11.27
2024-03-09T17:10:25.607Z,51.83
2024-03-09T17:15:29.715Z,12.82
2024-03-09T17:20:32.418Z,11.70
2024-03-09T17:25:36.430Z,10.35
2024-03-09T17:30:39.945Z,11.40
2024-03-09T17:35:42.511Z,11.73
2024-03-09T17:40:44.889Z,12.43
2024-03-09T17:45:47.193Z,14.18
2024-03-09T17:50:49.270Z,13.77
2024-03-09T17:55:52.293Z,19.17
2024-03-09T18:00:55.364Z,17.75
2024-03-09T18:05:58.217Z,13.27
2024-03-09T18:11:01.456Z,16.20
2024-03-09T18:16:04.227Z,16.23
2024-03-09T18:21:08.495Z,16.77
2024-03-09T18:26:14.839Z,17.65
2024-03-09T18:31:18.193Z,17.40
2024-03-09T18:36:20.651Z,17.92
2024-03-09T18:41:22.956Z,17.88
2024-03-09T18:46:25.699Z,21.17
2024-03-09T18:51:27.952Z,23.55
2024-03-09T18:56:30.185Z,19.88
2024-03-09T19:01:33.254Z,18.45
2024-03-09T19:06:35.458Z,24.20
2024-03-09T19:11:38.472Z,18.30
2024-03-09T19:16:41.641Z,16.63
2024-03-09T19:21:44.157Z,19.80
2024-03-09T19:26:46.724Z,20.25
2024-03-09T19:31:49.183Z,18.00
2024-03-09T19:36:51.620Z,18.98
2024-03-09T19:41:53.504Z,20.70
2024-03-09T19:46:56.184Z,20.80
2024-03-09T19:51:58.790Z,21.55
2024-03-09T19:57:02.443Z,24.15
2024-03-09T20:02:05.896Z,19.42
2024-03-09T20:07:09.273Z,20.48
2024-03-09T20:12:12.154Z,19.15
2024-03-09T20:17:14.630Z,16.58
2024-03-09T20:22:16.572Z,17.67
2024-03-09T20:27:19.086Z,18.52
2024-03-09T20:32:21.636Z,19.50
2024-03-09T20:37:25.167Z,16.63
2024-03-09T20:42:27.429Z,20.23
2024-03-09T20:47:30.037Z,17.15
2024-03-09T20:52:32.213Z,20.58
2024-03-09T20:57:36.849Z,23.30
2024-03-09T21:02:40.816Z,21.98
2024-03-09T21:07:43.101Z,16.27
2024-03-09T21:12:46.310Z,17.05
2024-03-09T21:17:49.993Z,17.13
2024-03-09T21:22:53.800Z,17.75
2024-03-09T21:27:56.356Z,19.17
2024-03-09T21:32:58.940Z,16.42
2024-03-09T21:38:01.678Z,21.05
2024-03-09T21:43:05.109Z,20.67
2024-03-09T21:48:08.266Z,18.15
2024-03-09T21:53:10.662Z,18.27
2024-03-09T21:58:13.441Z,18.58
2024-03-09T22:03:16.061Z,19.55
2024-03-09T22:08:18.509Z,20.00
2024-03-09T22:13:21.196Z,15.20
2024-03-09T22:18:23.516Z,17.30
2024-03-09T22:23:26.301Z,18.92
2024-03-09T22:28:28.786Z,15.45
2024-03-09T22:33:31.369Z,15.98
2024-03-09T22:38:33.961Z,15.45
2024-03-09T22:43:36.431Z,17.73
2024-03-09T22:48:38.792Z,13.07
2024-03-09T22:53:41.338Z,15.63
2024-03-09T22:58:43.365Z,15.18
2024-03-09T23:03:45.983Z,16.38
2024-03-09T23:08:48.698Z,17.38
2024-03-09T23:13:50.961Z,13.45
2024-03-09T23:18:53.615Z,15.10
2024-03-09T23:23:56.047Z,16.70
2024-03-09T23:28:58.356Z,11.48
2024-03-09T23:34:01.073Z,9.80
2024-03-09T23:39:03.184Z,19.40
2024-03-09T23:44:05.559Z,16.30
2024-03-09T23:49:08.070Z,14.30
2024-03-09T23:54:10.004Z,13.40
2024-03-09T23:59:12.303Z,14.13
